sensor_id;sensor_type;location;lat;lon;timestamp;P1;durP1;ratioP1;P2;durP2;ratioP2
20906;SDS011;10613;50.966;5.814;2022-07-24T00:01:47;3.50;;;3.50;;
20906;SDS011;10613;50.966;5.814;2022-07-24T00:05:54;2.50;;;2.50;;
20906;SDS011;10613;50.966;5.814;2022-07-24T00:10:05;3.00;;;3.00;;
20906;SDS011;10613;50.966;5.814;2022-07-24T00:14:25;2.25;;;2.25;;
20906;SDS011;10613;50.966;5.814;2022-07-24T00:18:53;3.00;;;3.00;;
20906;SDS011;10613;50.966;5.814;2022-07-24T00:23:03;2.75;;;1.25;;
20906;SDS011;10613;50.966;5.814;2022-07-24T00:27:27;2.25;;;2.25;;
20906;SDS011;10613;50.966;5.814;2022-07-24T00:31:34;2.50;;;2.50;;
20906;SDS011;10613;50.966;5.814;2022-07-24T00:35:41;2.50;;;2.50;;
20906;SDS011;10613;50.966;5.814;2022-07-24T00:39:54;11.00;;;9.50;;
20906;SDS011;10613;50.966;5.814;2022-07-24T00:48:36;4.00;;;4.00;;
20906;SDS011;10613;50.966;5.814;2022-07-24T00:57:29;2.00;;;2.00;;
20906;SDS011;10613;50.966;5.814;2022-07-24T01:02:04;5.75;;;5.75;;
20906;SDS011;10613;50.966;5.814;2022-07-24T01:06:15;5.50;;;5.50;;
20906;SDS011;10613;50.966;5.814;2022-07-24T01:14:59;6.00;;;3.00;;
20906;SDS011;10613;50.966;5.814;2022-07-24T01:19:06;3.50;;;3.50;;
20906;SDS011;10613;50.966;5.814;2022-07-24T01:23:48;2.25;;;2.25;;
20906;SDS011;10613;50.966;5.814;2022-07-24T01:28:00;1.75;;;1.75;;
20906;SDS011;10613;50.966;5.814;2022-07-24T01:32:25;2.00;;;2.00;;
20906;SDS011;10613;50.966;5.814;2022-07-24T01:36:38;2.75;;;2.75;;
20906;SDS011;10613;50.966;5.814;2022-07-24T01:40:49;2.50;;;2.50;;
20906;SDS011;10613;50.966;5.814;2022-07-24T01:44:57;3.00;;;3.00;;
20906;SDS011;10613;50.966;5.814;2022-07-24T01:49:28;3.00;;;3.00;;
20906;SDS011;10613;50.966;5.814;2022-07-24T01:53:38;2.00;;;2.00;;
20906;SDS011;10613;50.966;5.814;2022-07-24T01:58:13;4.00;;;4.00;;
20906;SDS011;10613;50.966;5.814;2022-07-24T02:02:23;4.50;;;4.50;;
20906;SDS011;10613;50.966;5.814;2022-07-24T02:06:55;5.00;;;5.00;;
20906;SDS011;10613;50.966;5.814;2022-07-24T02:11:02;2.50;;;2.50;;
20906;SDS011;10613;50.966;5.814;2022-07-24T02:15:09;5.00;;;5.00;;
20906;SDS011;10613;50.966;5.814;2022-07-24T02:19:40;5.00;;;2.50;;
20906;SDS011;10613;50.966;5.814;2022-07-24T02:23:48;2.25;;;2.00;;
20906;SDS011;10613;50.966;5.814;2022-07-24T02:27:56;5.00;;;5.00;;
20906;SDS011;10613;50.966;5.814;2022-07-24T02:32:08;2.00;;;2.00;;
20906;SDS011;10613;50.966;5.814;2022-07-24T02:36:15;2.25;;;2.25;;
20906;SDS011;10613;50.966;5.814;2022-07-24T02:40:22;2.50;;;2.50;;
20906;SDS011;10613;50.966;5.814;2022-07-24T02:44:34;2.50;;;2.50;;
20906;SDS011;10613;50.966;5.814;2022-07-24T02:48:42;3.00;;;3.00;;
20906;SDS011;10613;50.966;5.814;2022-07-24T02:52:49;2.75;;;2.75;;
20906;SDS011;10613;50.966;5.814;2022-07-24T03:01:49;5.00;;;5.00;;
20906;SDS011;10613;50.966;5.814;2022-07-24T03:05:56;3.00;;;3.00;;
20906;SDS011;10613;50.966;5.814;2022-07-24T03:10:09;5.00;;;5.00;;
20906;SDS011;10613;50.966;5.814;2022-07-24T03:14:28;5.25;;;5.25;;
20906;SDS011;10613;50.966;5.814;2022-07-24T03:18:43;3.50;;;3.50;;
20906;SDS011;10613;50.966;5.814;2022-07-24T03:23:09;4.00;;;4.00;;
20906;SDS011;10613;50.966;5.814;2022-07-24T03:27:19;5.25;;;5.00;;
20906;SDS011;10613;50.966;5.814;2022-07-24T03:31:26;3.50;;;2.50;;
20906;SDS011;10613;50.966;5.814;2022-07-24T03:35:44;7.25;;;7.25;;
20906;SDS011;10613;50.966;5.814;2022-07-24T03:39:51;6.75;;;6.00;;
20906;SDS011;10613;50.966;5.814;2022-07-24T03:44:17;3.50;;;3.50;;
20906;SDS011;10613;50.966;5.814;2022-07-24T03:48:33;6.75;;;6.75;;
20906;SDS011;10613;50.966;5.814;2022-07-24T03:52:40;5.75;;;5.75;;
20906;SDS011;10613;50.966;5.814;2022-07-24T03:56:49;2.00;;;2.00;;
20906;SDS011;10613;50.966;5.814;2022-07-24T04:01:04;7.00;;;6.50;;
20906;SDS011;10613;50.966;5.814;2022-07-24T04:05:11;8.75;;;8.25;;
20906;SDS011;10613;50.966;5.814;2022-07-24T04:09:41;9.00;;;7.50;;
20906;SDS011;10613;50.966;5.814;2022-07-24T04:14:14;12.25;;;11.50;;
20906;SDS011;10613;50.966;5.814;2022-07-24T04:18:28;6.00;;;5.50;;
20906;SDS011;10613;50.966;5.814;2022-07-24T04:23:00;6.25;;;6.25;;
20906;SDS011;10613;50.966;5.814;2022-07-24T04:27:07;7.75;;;7.00;;
20906;SDS011;10613;50.966;5.814;2022-07-24T04:31:14;3.00;;;3.00;;
20906;SDS011;10613;50.966;5.814;2022-07-24T04:35:28;3.50;;;3.50;;
20906;SDS011;10613;50.966;5.814;2022-07-24T04:44:34;10.50;;;8.25;;
20906;SDS011;10613;50.966;5.814;2022-07-24T04:48:41;10.25;;;10.25;;
20906;SDS011;10613;50.966;5.814;2022-07-24T04:52:48;9.25;;;9.25;;
20906;SDS011;10613;50.966;5.814;2022-07-24T04:56:55;6.50;;;4.50;;
20906;SDS011;10613;50.966;5.814;2022-07-24T05:01:04;9.00;;;9.00;;
20906;SDS011;10613;50.966;5.814;2022-07-24T05:05:11;5.00;;;5.00;;
20906;SDS011;10613;50.966;5.814;2022-07-24T05:09:18;5.00;;;5.00;;
20906;SDS011;10613;50.966;5.814;2022-07-24T05:13:25;7.00;;;7.00;;
20906;SDS011;10613;50.966;5.814;2022-07-24T05:17:38;6.50;;;5.50;;
20906;SDS011;10613;50.966;5.814;2022-07-24T05:21:49;5.75;;;5.75;;
20906;SDS011;10613;50.966;5.814;2022-07-24T05:25:56;5.75;;;5.75;;
20906;SDS011;10613;50.966;5.814;2022-07-24T05:30:19;10.25;;;10.25;;
20906;SDS011;10613;50.966;5.814;2022-07-24T05:34:26;6.75;;;6.50;;
20906;SDS011;10613;50.966;5.814;2022-07-24T05:38:33;9.50;;;7.50;;
20906;SDS011;10613;50.966;5.814;2022-07-24T05:43:00;6.25;;;6.25;;
20906;SDS011;10613;50.966;5.814;2022-07-24T05:47:06;14.25;;;10.75;;
20906;SDS011;10613;50.966;5.814;2022-07-24T05:51:19;9.50;;;9.50;;
20906;SDS011;10613;50.966;5.814;2022-07-24T05:55:25;5.00;;;5.00;;
20906;SDS011;10613;50.966;5.814;2022-07-24T05:59:33;10.75;;;9.00;;
20906;SDS011;10613;50.966;5.814;2022-07-24T06:03:40;10.00;;;10.00;;
20906;SDS011;10613;50.966;5.814;2022-07-24T06:07:53;9.00;;;7.00;;
20906;SDS011;10613;50.966;5.814;2022-07-24T06:12:05;8.50;;;8.50;;
20906;SDS011;10613;50.966;5.814;2022-07-24T06:16:12;5.75;;;5.75;;
20906;SDS011;10613;50.966;5.814;2022-07-24T06:20:19;10.25;;;10.25;;
20906;SDS011;10613;50.966;5.814;2022-07-24T06:24:30;6.25;;;6.25;;
20906;SDS011;10613;50.966;5.814;2022-07-24T06:28:43;9.50;;;9.50;;
20906;SDS011;10613;50.966;5.814;2022-07-24T06:32:54;9.25;;;9.25;;
20906;SDS011;10613;50.966;5.814;2022-07-24T06:37:01;6.50;;;6.50;;
20906;SDS011;10613;50.966;5.814;2022-07-24T06:41:08;5.50;;;5.50;;
20906;SDS011;10613;50.966;5.814;2022-07-24T06:45:22;7.75;;;6.00;;
20906;SDS011;10613;50.966;5.814;2022-07-24T06:53:55;8.75;;;7.50;;
20906;SDS011;10613;50.966;5.814;2022-07-24T06:58:02;6.00;;;6.00;;
20906;SDS011;10613;50.966;5.814;2022-07-24T07:02:09;5.50;;;5.50;;
20906;SDS011;10613;50.966;5.814;2022-07-24T07:06:16;8.25;;;8.25;;
20906;SDS011;10613;50.966;5.814;2022-07-24T07:10:23;5.75;;;5.75;;
20906;SDS011;10613;50.966;5.814;2022-07-24T07:14:30;8.75;;;8.75;;
20906;SDS011;10613;50.966;5.814;2022-07-24T07:18:37;6.75;;;6.75;;
20906;SDS011;10613;50.966;5.814;2022-07-24T07:27:14;7.00;;;7.00;;
20906;SDS011;10613;50.966;5.814;2022-07-24T07:31:21;10.50;;;10.50;;
20906;SDS011;10613;50.966;5.814;2022-07-24T07:35:31;9.00;;;8.75;;
20906;SDS011;10613;50.966;5.814;2022-07-24T07:40:00;8.75;;;8.75;;
20906;SDS011;10613;50.966;5.814;2022-07-24T07:44:14;8.00;;;8.00;;
20906;SDS011;10613;50.966;5.814;2022-07-24T07:48:36;10.25;;;9.75;;
20906;SDS011;10613;50.966;5.814;2022-07-24T07:52:43;12.50;;;12.50;;
20906;SDS011;10613;50.966;5.814;2022-07-24T07:56:53;8.00;;;8.00;;
20906;SDS011;10613;50.966;5.814;2022-07-24T08:01:00;11.00;;;9.25;;
20906;SDS011;10613;50.966;5.814;2022-07-24T08:05:07;6.25;;;6.25;;
20906;SDS011;10613;50.966;5.814;2022-07-24T08:09:14;10.25;;;8.00;;
20906;SDS011;10613;50.966;5.814;2022-07-24T08:13:21;9.25;;;9.25;;
20906;SDS011;10613;50.966;5.814;2022-07-24T08:17:34;7.00;;;7.00;;
20906;SDS011;10613;50.966;5.814;2022-07-24T08:21:56;7.25;;;7.00;;
20906;SDS011;10613;50.966;5.814;2022-07-24T08:26:02;10.75;;;10.75;;
20906;SDS011;10613;50.966;5.814;2022-07-24T08:30:14;9.25;;;9.25;;
20906;SDS011;10613;50.966;5.814;2022-07-24T08:34:22;7.50;;;7.00;;
20906;SDS011;10613;50.966;5.814;2022-07-24T08:39:01;11.75;;;10.50;;
20906;SDS011;10613;50.966;5.814;2022-07-24T08:43:18;6.50;;;6.50;;
20906;SDS011;10613;50.966;5.814;2022-07-24T08:47:26;7.25;;;6.00;;
20906;SDS011;10613;50.966;5.814;2022-07-24T08:51:33;7.00;;;7.00;;
20906;SDS011;10613;50.966;5.814;2022-07-24T08:56:09;6.50;;;6.50;;
20906;SDS011;10613;50.966;5.814;2022-07-24T09:00:16;6.00;;;6.00;;
20906;SDS011;10613;50.966;5.814;2022-07-24T09:09:09;7.00;;;6.75;;
20906;SDS011;10613;50.966;5.814;2022-07-24T09:13:16;8.00;;;7.25;;
20906;SDS011;10613;50.966;5.814;2022-07-24T09:17:54;7.25;;;6.25;;
20906;SDS011;10613;50.966;5.814;2022-07-24T09:22:32;7.25;;;6.75;;
20906;SDS011;10613;50.966;5.814;2022-07-24T09:30:54;8.75;;;7.00;;
20906;SDS011;10613;50.966;5.814;2022-07-24T09:40:29;6.00;;;4.00;;
20906;SDS011;10613;50.966;5.814;2022-07-24T09:50:13;5.00;;;5.00;;
20906;SDS011;10613;50.966;5.814;2022-07-24T09:54:40;3.00;;;3.00;;
20906;SDS011;10613;50.966;5.814;2022-07-24T09:58:55;3.00;;;3.00;;
20906;SDS011;10613;50.966;5.814;2022-07-24T10:03:20;5.50;;;5.00;;
20906;SDS011;10613;50.966;5.814;2022-07-24T10:08:02;4.75;;;4.75;;
20906;SDS011;10613;50.966;5.814;2022-07-24T10:12:14;7.00;;;7.00;;
20906;SDS011;10613;50.966;5.814;2022-07-24T10:16:46;5.00;;;5.00;;
20906;SDS011;10613;50.966;5.814;2022-07-24T10:21:05;6.75;;;6.75;;
20906;SDS011;10613;50.966;5.814;2022-07-24T10:25:26;8.00;;;7.00;;
20906;SDS011;10613;50.966;5.814;2022-07-24T10:30:04;6.00;;;6.00;;
20906;SDS011;10613;50.966;5.814;2022-07-24T10:44:19;9.00;;;8.00;;
20906;SDS011;10613;50.966;5.814;2022-07-24T10:48:33;6.25;;;6.25;;
20906;SDS011;10613;50.966;5.814;2022-07-24T10:52:49;6.00;;;6.00;;
20906;SDS011;10613;50.966;5.814;2022-07-24T10:56:56;7.00;;;6.50;;
20906;SDS011;10613;50.966;5.814;2022-07-24T11:06:09;4.50;;;4.50;;
20906;SDS011;10613;50.966;5.814;2022-07-24T11:15:04;6.00;;;6.00;;
20906;SDS011;10613;50.966;5.814;2022-07-24T11:19:46;6.00;;;6.00;;
20906;SDS011;10613;50.966;5.814;2022-07-24T11:28:21;7.25;;;7.25;;
20906;SDS011;10613;50.966;5.814;2022-07-24T11:32:28;6.00;;;6.00;;
20906;SDS011;10613;50.966;5.814;2022-07-24T11:36:36;4.00;;;4.00;;
20906;SDS011;10613;50.966;5.814;2022-07-24T11:41:14;8.00;;;8.00;;
20906;SDS011;10613;50.966;5.814;2022-07-24T11:45:29;5.00;;;3.75;;
20906;SDS011;10613;50.966;5.814;2022-07-24T12:20:57;3.25;;;3.25;;
20906;SDS011;10613;50.966;5.814;2022-07-24T12:30:37;3.00;;;3.00;;
20906;SDS011;10613;50.966;5.814;2022-07-24T12:35:13;3.00;;;3.00;;
20906;SDS011;10613;50.966;5.814;2022-07-24T12:39:29;3.00;;;3.00;;
20906;SDS011;10613;50.966;5.814;2022-07-24T12:48:22;3.25;;;3.25;;
20906;SDS011;10613;50.966;5.814;2022-07-24T13:13:07;2.00;;;2.00;;
20906;SDS011;10613;50.966;5.814;2022-07-24T13:17:22;2.75;;;2.75;;
20906;SDS011;10613;50.966;5.814;2022-07-24T13:21:35;3.75;;;3.75;;
20906;SDS011;10613;50.966;5.814;2022-07-24T13:25:43;3.00;;;3.00;;
20906;SDS011;10613;50.966;5.814;2022-07-24T13:30:18;2.00;;;2.00;;
20906;SDS011;10613;50.966;5.814;2022-07-24T13:34:29;2.00;;;2.00;;
20906;SDS011;10613;50.966;5.814;2022-07-24T13:38:50;2.00;;;2.00;;
20906;SDS011;10613;50.966;5.814;2022-07-24T13:47:56;3.00;;;3.00;;
20906;SDS011;10613;50.966;5.814;2022-07-24T13:52:29;2.00;;;2.00;;
20906;SDS011;10613;50.966;5.814;2022-07-24T13:56:38;2.25;;;2.25;;
20906;SDS011;10613;50.966;5.814;2022-07-24T14:00:55;2.00;;;2.00;;
20906;SDS011;10613;50.966;5.814;2022-07-24T14:05:02;2.00;;;2.00;;
20906;SDS011;10613;50.966;5.814;2022-07-24T14:09:20;2.00;;;2.00;;
20906;SDS011;10613;50.966;5.814;2022-07-24T14:13:29;2.25;;;2.25;;
20906;SDS011;10613;50.966;5.814;2022-07-24T14:17:45;3.25;;;3.25;;
20906;SDS011;10613;50.966;5.814;2022-07-24T14:21:53;2.75;;;2.75;;
20906;SDS011;10613;50.966;5.814;2022-07-24T14:26:04;3.00;;;3.00;;
20906;SDS011;10613;50.966;5.814;2022-07-24T14:30:12;3.00;;;3.00;;
20906;SDS011;10613;50.966;5.814;2022-07-24T14:34:44;2.00;;;2.00;;
20906;SDS011;10613;50.966;5.814;2022-07-24T14:38:54;3.00;;;3.00;;
20906;SDS011;10613;50.966;5.814;2022-07-24T14:43:01;4.00;;;4.00;;
20906;SDS011;10613;50.966;5.814;2022-07-24T14:47:14;2.00;;;2.00;;
20906;SDS011;10613;50.966;5.814;2022-07-24T14:51:24;2.00;;;2.00;;
20906;SDS011;10613;50.966;5.814;2022-07-24T14:55:37;2.00;;;2.00;;
20906;SDS011;10613;50.966;5.814;2022-07-24T14:59:45;3.00;;;3.00;;
20906;SDS011;10613;50.966;5.814;2022-07-24T15:03:52;3.00;;;3.00;;
20906;SDS011;10613;50.966;5.814;2022-07-24T15:12:51;3.25;;;2.25;;
20906;SDS011;10613;50.966;5.814;2022-07-24T15:17:04;2.75;;;2.75;;
20906;SDS011;10613;50.966;5.814;2022-07-24T15:21:15;2.50;;;2.50;;
20906;SDS011;10613;50.966;5.814;2022-07-24T15:25:23;3.00;;;3.00;;
20906;SDS011;10613;50.966;5.814;2022-07-24T15:29:34;2.50;;;2.50;;
20906;SDS011;10613;50.966;5.814;2022-07-24T15:33:41;4.00;;;3.00;;
20906;SDS011;10613;50.966;5.814;2022-07-24T15:37:49;2.50;;;2.50;;
20906;SDS011;10613;50.966;5.814;2022-07-24T15:42:00;2.00;;;2.00;;
20906;SDS011;10613;50.966;5.814;2022-07-24T15:46:07;3.00;;;3.00;;
20906;SDS011;10613;50.966;5.814;2022-07-24T15:50:26;3.00;;;3.00;;
20906;SDS011;10613;50.966;5.814;2022-07-24T15:54:34;2.75;;;2.75;;
20906;SDS011;10613;50.966;5.814;2022-07-24T15:58:54;2.50;;;2.50;;
20906;SDS011;10613;50.966;5.814;2022-07-24T16:12:19;2.25;;;2.25;;
20906;SDS011;10613;50.966;5.814;2022-07-24T16:16:26;2.00;;;2.00;;
20906;SDS011;10613;50.966;5.814;2022-07-24T16:20:34;1.50;;;1.50;;
20906;SDS011;10613;50.966;5.814;2022-07-24T16:24:48;2.00;;;2.00;;
20906;SDS011;10613;50.966;5.814;2022-07-24T16:28:59;2.00;;;2.00;;
20906;SDS011;10613;50.966;5.814;2022-07-24T16:33:32;2.00;;;2.00;;
20906;SDS011;10613;50.966;5.814;2022-07-24T16:37:44;3.00;;;3.00;;
20906;SDS011;10613;50.966;5.814;2022-07-24T16:41:51;3.00;;;2.00;;
20906;SDS011;10613;50.966;5.814;2022-07-24T16:45:59;2.00;;;2.00;;
20906;SDS011;10613;50.966;5.814;2022-07-24T16:50:35;3.00;;;3.00;;
20906;SDS011;10613;50.966;5.814;2022-07-24T16:54:43;2.00;;;2.00;;
20906;SDS011;10613;50.966;5.814;2022-07-24T16:58:51;1.00;;;1.00;;
20906;SDS011;10613;50.966;5.814;2022-07-24T17:03:14;3.00;;;3.00;;
20906;SDS011;10613;50.966;5.814;2022-07-24T17:07:24;2.25;;;2.25;;
20906;SDS011;10613;50.966;5.814;2022-07-24T17:11:35;2.25;;;2.25;;
20906;SDS011;10613;50.966;5.814;2022-07-24T17:15:42;3.00;;;3.00;;
20906;SDS011;10613;50.966;5.814;2022-07-24T17:20:23;4.50;;;4.50;;
20906;SDS011;10613;50.966;5.814;2022-07-24T17:24:45;3.00;;;3.00;;
20906;SDS011;10613;50.966;5.814;2022-07-24T17:28:53;3.00;;;3.00;;
20906;SDS011;10613;50.966;5.814;2022-07-24T17:33:11;4.00;;;4.00;;
20906;SDS011;10613;50.966;5.814;2022-07-24T17:37:24;1.00;;;1.00;;
20906;SDS011;10613;50.966;5.814;2022-07-24T17:41:32;3.00;;;3.00;;
20906;SDS011;10613;50.966;5.814;2022-07-24T17:45:49;3.00;;;3.00;;
20906;SDS011;10613;50.966;5.814;2022-07-24T17:50:16;2.50;;;2.50;;
20906;SDS011;10613;50.966;5.814;2022-07-24T17:54:40;3.00;;;3.00;;
20906;SDS011;10613;50.966;5.814;2022-07-24T17:58:47;3.00;;;3.00;;
20906;SDS011;10613;50.966;5.814;2022-07-24T18:03:09;2.50;;;2.50;;
20906;SDS011;10613;50.966;5.814;2022-07-24T18:07:19;5.50;;;5.50;;
20906;SDS011;10613;50.966;5.814;2022-07-24T18:11:26;2.75;;;2.75;;
20906;SDS011;10613;50.966;5.814;2022-07-24T18:15:34;2.75;;;2.75;;
20906;SDS011;10613;50.966;5.814;2022-07-24T18:25:16;3.00;;;3.00;;
20906;SDS011;10613;50.966;5.814;2022-07-24T18:29:24;2.00;;;2.00;;
20906;SDS011;10613;50.966;5.814;2022-07-24T18:34:06;4.00;;;4.00;;
20906;SDS011;10613;50.966;5.814;2022-07-24T18:53:44;3.25;;;3.25;;
20906;SDS011;10613;50.966;5.814;2022-07-24T19:02:43;8.50;;;8.50;;
20906;SDS011;10613;50.966;5.814;2022-07-24T19:07:04;1.25;;;1.25;;
20906;SDS011;10613;50.966;5.814;2022-07-24T19:11:14;3.00;;;3.00;;
20906;SDS011;10613;50.966;5.814;2022-07-24T19:15:25;1.00;;;1.00;;
20906;SDS011;10613;50.966;5.814;2022-07-24T19:19:33;3.00;;;1.00;;
20906;SDS011;10613;50.966;5.814;2022-07-24T19:23:39;1.00;;;1.00;;
20906;SDS011;10613;50.966;5.814;2022-07-24T19:27:47;1.25;;;1.25;;
20906;SDS011;10613;50.966;5.814;2022-07-24T19:31:55;1.00;;;1.00;;
20906;SDS011;10613;50.966;5.814;2022-07-24T19:36:16;1.00;;;1.00;;
20906;SDS011;10613;50.966;5.814;2022-07-24T19:40:26;1.25;;;1.25;;
20906;SDS011;10613;50.966;5.814;2022-07-24T19:44:35;5.50;;;4.00;;
20906;SDS011;10613;50.966;5.814;2022-07-24T19:48:57;3.00;;;3.00;;
20906;SDS011;10613;50.966;5.814;2022-07-24T19:53:10;3.25;;;3.25;;
20906;SDS011;10613;50.966;5.814;2022-07-24T19:57:43;3.00;;;3.00;;
20906;SDS011;10613;50.966;5.814;2022-07-24T20:01:55;6.00;;;6.00;;
20906;SDS011;10613;50.966;5.814;2022-07-24T20:06:10;6.00;;;6.00;;
20906;SDS011;10613;50.966;5.814;2022-07-24T20:10:26;7.00;;;7.00;;
20906;SDS011;10613;50.966;5.814;2022-07-24T20:14:36;3.75;;;3.50;;
20906;SDS011;10613;50.966;5.814;2022-07-24T20:18:45;4.00;;;4.00;;
20906;SDS011;10613;50.966;5.814;2022-07-24T20:22:54;4.00;;;4.00;;
20906;SDS011;10613;50.966;5.814;2022-07-24T20:27:08;4.00;;;4.00;;
20906;SDS011;10613;50.966;5.814;2022-07-24T20:31:21;4.50;;;4.50;;
20906;SDS011;10613;50.966;5.814;2022-07-24T20:35:34;4.50;;;3.25;;
20906;SDS011;10613;50.966;5.814;2022-07-24T20:39:41;4.75;;;4.75;;
20906;SDS011;10613;50.966;5.814;2022-07-24T20:43:57;6.25;;;6.25;;
20906;SDS011;10613;50.966;5.814;2022-07-24T20:48:06;4.00;;;4.00;;
20906;SDS011;10613;50.966;5.814;2022-07-24T20:52:19;3.75;;;3.75;;
20906;SDS011;10613;50.966;5.814;2022-07-24T20:56:26;4.75;;;4.75;;
20906;SDS011;10613;50.966;5.814;2022-07-24T21:00:58;4.00;;;3.75;;
20906;SDS011;10613;50.966;5.814;2022-07-24T21:05:23;6.75;;;6.75;;
20906;SDS011;10613;50.966;5.814;2022-07-24T21:09:31;6.75;;;5.75;;
20906;SDS011;10613;50.966;5.814;2022-07-24T21:13:55;5.00;;;3.00;;
20906;SDS011;10613;50.966;5.814;2022-07-24T21:18:03;3.50;;;3.50;;
20906;SDS011;10613;50.966;5.814;2022-07-24T21:22:15;5.50;;;5.50;;
20906;SDS011;10613;50.966;5.814;2022-07-24T21:26:25;7.00;;;6.00;;
20906;SDS011;10613;50.966;5.814;2022-07-24T21:30:33;3.00;;;3.00;;
20906;SDS011;10613;50.966;5.814;2022-07-24T21:34:43;5.00;;;3.25;;
20906;SDS011;10613;50.966;5.814;2022-07-24T21:38:51;6.00;;;4.50;;
20906;SDS011;10613;50.966;5.814;2022-07-24T21:42:58;6.00;;;6.00;;
20906;SDS011;10613;50.966;5.814;2022-07-24T21:47:05;5.00;;;5.00;;
20906;SDS011;10613;50.966;5.814;2022-07-24T21:51:13;3.50;;;3.50;;
20906;SDS011;10613;50.966;5.814;2022-07-24T21:55:19;4.00;;;4.00;;
20906;SDS011;10613;50.966;5.814;2022-07-24T21:59:27;7.75;;;6.00;;
20906;SDS011;10613;50.966;5.814;2022-07-24T22:03:34;4.25;;;4.25;;
20906;SDS011;10613;50.966;5.814;2022-07-24T22:07:41;5.00;;;5.00;;
20906;SDS011;10613;50.966;5.814;2022-07-24T22:11:56;3.75;;;2.00;;
20906;SDS011;10613;50.966;5.814;2022-07-24T22:16:03;3.25;;;3.25;;
20906;SDS011;10613;50.966;5.814;2022-07-24T22:20:11;5.00;;;5.00;;
20906;SDS011;10613;50.966;5.814;2022-07-24T22:24:18;6.00;;;6.00;;
20906;SDS011;10613;50.966;5.814;2022-07-24T22:28:27;3.00;;;3.00;;
20906;SDS011;10613;50.966;5.814;2022-07-24T22:32:35;2.00;;;2.00;;
20906;SDS011;10613;50.966;5.814;2022-07-24T22:36:46;2.50;;;2.50;;
20906;SDS011;10613;50.966;5.814;2022-07-24T22:41:03;3.50;;;3.50;;
20906;SDS011;10613;50.966;5.814;2022-07-24T22:45:15;3.00;;;3.00;;
20906;SDS011;10613;50.966;5.814;2022-07-24T22:49:23;4.50;;;2.50;;
20906;SDS011;10613;50.966;5.814;2022-07-24T22:53:39;4.50;;;4.50;;
20906;SDS011;10613;50.966;5.814;2022-07-24T22:57:50;4.00;;;4.00;;
20906;SDS011;10613;50.966;5.814;2022-07-24T23:01:57;3.00;;;3.00;;
20906;SDS011;10613;50.966;5.814;2022-07-24T23:06:11;3.25;;;2.50;;
20906;SDS011;10613;50.966;5.814;2022-07-24T23:10:19;5.00;;;5.00;;
20906;SDS011;10613;50.966;5.814;2022-07-24T23:14:28;3.50;;;3.00;;
20906;SDS011;10613;50.966;5.814;2022-07-24T23:18:37;3.00;;;3.00;;
20906;SDS011;10613;50.966;5.814;2022-07-24T23:22:45;2.75;;;2.75;;
20906;SDS011;10613;50.966;5.814;2022-07-24T23:26:53;3.00;;;2.00;;
20906;SDS011;10613;50.966;5.814;2022-07-24T23:31:03;3.00;;;3.00;;
20906;SDS011;10613;50.966;5.814;2022-07-24T23:35:11;5.50;;;5.00;;
20906;SDS011;10613;50.966;5.814;2022-07-24T23:39:20;2.00;;;2.00;;
20906;SDS011;10613;50.966;5.814;2022-07-24T23:43:29;3.00;;;3.00;;
20906;SDS011;10613;50.966;5.814;2022-07-24T23:47:37;4.50;;;4.50;;
20906;SDS011;10613;50.966;5.814;2022-07-24T23:51:43;3.00;;;3.00;;
20906;SDS011;10613;50.966;5.814;2022-07-24T23:55:51;2.50;;;2.50;;
20906;SDS011;10613;50.966;5.814;2022-07-24T23:59:57;2.25;;;2.25;;
